Saint Johnsbury Center, Vermont
Current Conditions -  °F | °C
As of 11:52 AM on Tuesday 27 Jan 2015 (Local Time) from KHIE Reporting Station
Heavy Snow Heavy Snow  
Wind Chill: 12°   Ceiling: 900
Heat Index: 12°   Visibility: 0.25mi
Dew Point:   Wind: 3mph
Humidity: 80%   Direction: NA
Pressure: 29.69"   Gusts: NA
Location:  44.46°N, 72.01°W
Report Text: KHIE 271652Z AUTO VRB03KT 1/4SM +SN VV009 M11/M14 A2969 RMK AO2 SLP078 P0003 T11111139
Loading
Personal Weather Stations






























Interactive Weather Map New forecast layout! Learn more

10-Day Weather Forecast

Advertisements
Track Severe Weather on mobile